createdAt,value
2023-05-10T00:00:47.576Z,194.40
2023-05-10T00:03:14.717Z,192.80
2023-05-10T00:05:41.821Z,195.97
2023-05-10T00:08:08.723Z,203.27
2023-05-10T00:11:41.333Z,203.73
2023-05-10T00:14:08.278Z,197.70
2023-05-10T00:16:35.216Z,203.50
2023-05-10T00:19:02.306Z,196.70
2023-05-10T00:21:29.447Z,195.70
2023-05-10T00:23:56.460Z,194.67
2023-05-10T00:26:23.393Z,189.80
2023-05-10T00:28:53.415Z,193.60
2023-05-10T00:31:20.479Z,196.50
2023-05-10T00:33:47.471Z,195.87
2023-05-10T00:36:14.384Z,199.40
2023-05-10T00:38:41.964Z,189.63
2023-05-10T00:41:09.460Z,196.20
2023-05-10T00:43:38.030Z,193.67
2023-05-10T00:46:06.110Z,193.57
2023-05-10T00:48:33.145Z,194.50
2023-05-10T00:51:00.267Z,193.07
2023-05-10T00:53:28.157Z,197.47
2023-05-10T00:55:55.191Z,194.47
2023-05-10T00:58:22.321Z,188.60
2023-05-10T01:00:50.239Z,198.47
2023-05-10T01:03:18.192Z,193.50
2023-05-10T01:05:45.420Z,192.60
2023-05-10T01:08:12.404Z,194.70
2023-05-10T01:10:39.412Z,193.53
2023-05-10T01:13:06.884Z,189.03
2023-05-10T01:15:34.121Z,194.23
2023-05-10T01:18:02.454Z,191.80
2023-05-10T01:20:39.323Z,191.53
2023-05-10T01:23:44.803Z,192.30
2023-05-10T01:26:47.617Z,195.47
2023-05-10T01:29:38.762Z,190.00
2023-05-10T01:32:39.060Z,191.77
2023-05-10T01:35:40.710Z,191.37
2023-05-10T01:38:42.171Z,187.63
2023-05-10T01:41:28.756Z,192.27
2023-05-10T01:44:07.716Z,192.13
2023-05-10T01:46:39.997Z,191.23
2023-05-10T01:49:25.361Z,194.57
2023-05-10T01:51:57.817Z,193.90
2023-05-10T01:54:25.931Z,193.73
2023-05-10T01:57:04.918Z,197.20
2023-05-10T01:59:41.707Z,193.13
2023-05-10T02:02:12.857Z,192.23
2023-05-10T02:04:41.601Z,192.93
2023-05-10T02:07:10.761Z,186.70
2023-05-10T02:09:39.327Z,188.23
2023-05-10T02:12:07.631Z,191.77
2023-05-10T02:14:37.777Z,188.67
2023-05-10T02:17:07.209Z,192.40
2023-05-10T02:19:37.866Z,186.97
2023-05-10T02:22:05.345Z,193.07
2023-05-10T02:24:34.760Z,189.80
2023-05-10T02:27:04.628Z,191.07
2023-05-10T02:29:33.756Z,189.80
2023-05-10T02:32:01.930Z,188.50
2023-05-10T02:34:29.599Z,192.77
2023-05-10T02:36:57.566Z,190.90
2023-05-10T02:39:25.874Z,186.87
2023-05-10T02:41:54.519Z,196.03
2023-05-10T02:44:23.711Z,185.73
2023-05-10T02:46:51.056Z,189.73
2023-05-10T02:49:18.120Z,190.17
2023-05-10T02:52:00.358Z,192.53
2023-05-10T02:54:33.054Z,189.90
2023-05-10T02:57:02.343Z,193.53
2023-05-10T02:59:29.458Z,190.17
2023-05-10T03:01:56.471Z,189.47
2023-05-10T03:04:23.734Z,187.27
2023-05-10T03:06:52.762Z,188.67
2023-05-10T03:09:20.848Z,188.33
2023-05-10T03:12:04.295Z,192.07
2023-05-10T03:14:58.071Z,193.50
2023-05-10T03:17:41.022Z,190.93
2023-05-10T03:20:12.683Z,186.43
2023-05-10T03:22:47.129Z,185.10
2023-05-10T03:25:17.778Z,186.17
2023-05-10T03:27:46.244Z,189.03
2023-05-10T03:30:14.843Z,185.83
2023-05-10T03:32:42.362Z,190.63
2023-05-10T03:35:11.301Z,188.47
2023-05-10T03:37:38.579Z,187.67
2023-05-10T03:40:07.189Z,195.27
2023-05-10T03:42:36.662Z,189.63
2023-05-10T03:45:03.905Z,189.27
2023-05-10T03:47:30.932Z,194.00
2023-05-10T03:49:59.067Z,188.00
2023-05-10T03:52:26.304Z,189.93
2023-05-10T03:54:53.291Z,185.50
2023-05-10T03:57:20.450Z,189.03
2023-05-10T03:59:47.426Z,188.83
2023-05-10T04:02:14.484Z,188.23
2023-05-10T04:04:41.563Z,188.47
2023-05-10T04:07:08.894Z,190.67
2023-05-10T04:09:35.839Z,187.80
2023-05-10T04:12:03.396Z,190.87
2023-05-10T04:14:30.364Z,188.07
2023-05-10T04:16:57.364Z,190.83
2023-05-10T04:19:24.682Z,190.40
2023-05-10T04:21:51.570Z,190.73
2023-05-10T04:24:18.504Z,191.20
2023-05-10T04:26:45.552Z,190.87
2023-05-10T04:29:12.516Z,191.80
2023-05-10T04:31:39.498Z,189.27
2023-05-10T04:34:06.675Z,189.63
2023-05-10T04:36:36.219Z,192.30
2023-05-10T04:39:04.476Z,189.53
2023-05-10T04:41:31.680Z,193.43
2023-05-10T04:43:58.601Z,194.50
2023-05-10T04:46:25.897Z,185.73
2023-05-10T04:48:52.935Z,191.27
2023-05-10T04:51:19.995Z,190.10
2023-05-10T04:53:57.641Z,198.53
2023-05-10T04:56:31.962Z,190.97
2023-05-10T04:58:58.898Z,196.00
2023-05-10T05:01:25.965Z,253.10
2023-05-10T05:03:53.982Z,262.63
2023-05-10T05:06:22.171Z,247.47
2023-05-10T05:08:50.703Z,242.27
2023-05-10T05:11:18.364Z,237.07
2023-05-10T05:13:45.554Z,228.57
2023-05-10T05:16:12.583Z,192.80
2023-05-10T05:18:39.908Z,194.13
2023-05-10T05:21:17.662Z,198.57
2023-05-10T05:23:44.809Z,204.77
2023-05-10T05:26:12.215Z,196.53
2023-05-10T05:28:39.431Z,193.97
2023-05-10T05:31:09.666Z,206.30
2023-05-10T05:33:37.374Z,203.37
2023-05-10T05:36:06.300Z,198.40
2023-05-10T05:38:33.318Z,201.30
2023-05-10T05:41:00.247Z,205.70
2023-05-10T05:43:27.429Z,199.40
2023-05-10T05:45:55.095Z,235.63
2023-05-10T05:48:22.294Z,201.30
2023-05-10T05:50:49.254Z,268.27
2023-05-10T05:53:16.821Z,211.83
2023-05-10T05:55:58.782Z,203.77
2023-05-10T05:58:26.873Z,208.13
2023-05-10T06:00:55.024Z,208.40
2023-05-10T06:03:22.390Z,210.13
2023-05-10T06:05:49.605Z,210.10
2023-05-10T06:08:16.732Z,214.85
2023-05-10T06:10:43.697Z,215.27
2023-05-10T06:13:11.012Z,211.97
2023-05-10T06:15:38.405Z,210.55
2023-05-10T06:18:05.684Z,214.90
2023-05-10T06:20:32.807Z,214.23
2023-05-10T06:22:59.952Z,215.38
2023-05-10T06:25:26.913Z,211.63
2023-05-10T06:27:58.194Z,227.30
2023-05-10T06:30:29.194Z,214.93
2023-05-10T06:32:56.566Z,212.20
2023-05-10T06:35:23.949Z,208.90
2023-05-10T06:37:52.062Z,218.07
2023-05-10T06:40:19.783Z,220.05
2023-05-10T06:42:47.614Z,218.82
2023-05-10T06:45:16.470Z,213.13
2023-05-10T06:47:44.435Z,221.18
2023-05-10T06:50:12.475Z,214.68
2023-05-10T06:52:40.017Z,205.32
2023-05-10T06:55:08.083Z,206.00
2023-05-10T06:57:35.186Z,210.00
2023-05-10T07:00:05.014Z,206.50
2023-05-10T07:02:32.264Z,208.88
2023-05-10T07:05:01.637Z,203.50
2023-05-10T07:07:30.009Z,200.75
2023-05-10T07:09:58.598Z,201.15
2023-05-10T07:12:26.632Z,203.00
2023-05-10T07:14:53.767Z,215.77
2023-05-10T07:17:20.945Z,213.38
2023-05-10T07:19:48.064Z,216.90
2023-05-10T07:22:15.987Z,208.90
2023-05-10T07:24:42.935Z,209.57
2023-05-10T07:27:10.138Z,217.45
2023-05-10T07:29:37.340Z,225.63
2023-05-10T07:32:04.445Z,224.15
2023-05-10T07:34:32.656Z,218.32
2023-05-10T07:37:00.381Z,219.23
2023-05-10T07:39:28.615Z,223.77
2023-05-10T07:41:56.752Z,225.13
2023-05-10T07:44:24.043Z,228.32
2023-05-10T07:46:51.307Z,346.85
2023-05-10T07:49:18.311Z,219.02
2023-05-10T07:51:45.287Z,219.10
2023-05-10T07:54:12.599Z,222.38
2023-05-10T07:56:40.747Z,219.18
2023-05-10T07:59:09.263Z,215.70
2023-05-10T08:01:36.882Z,222.68
2023-05-10T08:04:04.062Z,223.82
2023-05-10T08:06:31.476Z,217.10
2023-05-10T08:08:58.701Z,228.23
2023-05-10T08:11:25.920Z,239.88
2023-05-10T08:13:53.854Z,220.65
2023-05-10T08:16:21.502Z,221.52
2023-05-10T08:18:50.142Z,221.77
2023-05-10T08:21:17.452Z,221.65
2023-05-10T08:23:45.204Z,223.70
2023-05-10T08:26:12.398Z,220.60
2023-05-10T08:28:39.472Z,220.00
2023-05-10T08:31:06.793Z,218.93
2023-05-10T08:33:34.264Z,224.82
2023-05-10T08:36:01.258Z,222.43
2023-05-10T08:38:28.180Z,231.27
2023-05-10T08:41:00.071Z,228.82
2023-05-10T08:43:31.392Z,233.73
2023-05-10T08:46:04.101Z,216.05
2023-05-10T08:48:32.162Z,223.98
2023-05-10T08:51:01.826Z,207.25
2023-05-10T08:53:32.121Z,216.80
2023-05-10T08:55:59.241Z,213.68
2023-05-10T08:58:30.604Z,202.05
2023-05-10T09:00:59.203Z,204.45
2023-05-10T09:03:26.318Z,209.02
2023-05-10T09:05:53.312Z,195.20
2023-05-10T09:08:21.838Z,191.45
2023-05-10T09:10:50.142Z,200.20
2023-05-10T09:13:18.086Z,205.82
2023-05-10T09:15:46.256Z,181.85
2023-05-10T09:18:13.745Z,176.90
2023-05-10T09:20:41.278Z,173.88
2023-05-10T09:23:09.028Z,162.38
2023-05-10T09:26:51.392Z,163.35
2023-05-10T09:29:44.155Z,226.60
2023-05-10T09:32:11.077Z,169.77
2023-05-10T09:34:40.980Z,185.02
2023-05-10T09:37:09.048Z,199.77
2023-05-10T09:39:38.349Z,199.80
2023-05-10T09:42:07.979Z,204.30
2023-05-10T09:44:35.891Z,197.07
2023-05-10T09:47:03.736Z,332.15
2023-05-10T09:49:31.715Z,184.02
2023-05-10T09:52:09.159Z,198.52
2023-05-10T09:54:37.070Z,202.80
2023-05-10T09:57:04.316Z,208.32
2023-05-10T09:59:35.813Z,194.75
2023-05-10T10:02:03.917Z,195.63
2023-05-10T10:04:31.178Z,202.93
2023-05-10T10:07:04.403Z,196.55
2023-05-10T10:09:31.968Z,178.05
2023-05-10T10:12:03.071Z,171.73
2023-05-10T10:14:30.964Z,200.77
2023-05-10T10:17:06.375Z,183.15
2023-05-10T10:19:38.815Z,168.20
2023-05-10T10:22:06.929Z,171.10
2023-05-10T10:24:34.635Z,173.02
2023-05-10T10:27:25.111Z,162.50
2023-05-10T10:30:17.866Z,177.00
2023-05-10T10:33:20.621Z,162.68
2023-05-10T10:35:56.850Z,162.32
2023-05-10T10:38:23.970Z,157.80
2023-05-10T10:41:04.052Z,164.30
2023-05-10T10:43:31.353Z,157.95
2023-05-10T10:46:18.979Z,158.75
2023-05-10T10:49:09.521Z,154.15
2023-05-10T10:51:40.611Z,127.53
2023-05-10T10:54:13.737Z,129.57
2023-05-10T10:56:40.760Z,140.52
2023-05-10T10:59:09.296Z,135.60
2023-05-10T11:01:36.507Z,151.18
2023-05-10T11:04:06.686Z,150.45
2023-05-10T11:06:37.576Z,164.20
2023-05-10T11:09:14.331Z,155.98
2023-05-10T11:11:56.127Z,159.02
2023-05-10T11:14:23.817Z,187.07
2023-05-10T11:16:51.227Z,172.60
2023-05-10T11:19:19.263Z,164.65
2023-05-10T11:21:47.969Z,197.95
2023-05-10T11:24:21.886Z,154.50
2023-05-10T11:26:52.379Z,171.95
2023-05-10T11:29:19.408Z,174.52
2023-05-10T11:31:48.075Z,139.35
2023-05-10T11:34:26.535Z,138.35
2023-05-10T11:36:57.495Z,166.98
2023-05-10T11:39:29.610Z,142.80
2023-05-10T11:41:57.259Z,138.70
2023-05-10T11:44:24.881Z,131.85
2023-05-10T11:46:51.903Z,275.23
2023-05-10T11:49:19.167Z,101.55
2023-05-10T11:51:46.734Z,141.75
2023-05-10T11:54:14.436Z,144.10
2023-05-10T11:56:42.241Z,139.35
2023-05-10T11:59:09.570Z,151.88
2023-05-10T12:01:37.057Z,135.75
2023-05-10T12:04:04.551Z,128.93
2023-05-10T12:06:33.646Z,133.00
2023-05-10T12:09:06.621Z,141.15
2023-05-10T12:11:37.936Z,142.32
2023-05-10T12:14:06.461Z,135.55
2023-05-10T12:16:33.553Z,152.07
2023-05-10T12:19:01.857Z,155.85
2023-05-10T12:21:31.708Z,148.52
2023-05-10T12:24:04.865Z,135.63
2023-05-10T12:26:33.648Z,132.68
2023-05-10T12:29:20.122Z,116.97
2023-05-10T12:31:58.788Z,135.55
2023-05-10T12:34:33.902Z,120.05
2023-05-10T12:37:01.748Z,112.78
2023-05-10T12:39:47.165Z,135.75
2023-05-10T12:42:14.185Z,145.68
2023-05-10T12:44:41.566Z,146.00
2023-05-10T12:47:08.873Z,128.05
2023-05-10T12:49:35.950Z,109.60
2023-05-10T12:52:03.126Z,117.35
2023-05-10T12:54:30.102Z,116.15
2023-05-10T12:56:57.076Z,111.57
2023-05-10T12:59:24.134Z,104.50
2023-05-10T13:01:51.192Z,100.82
2023-05-10T13:04:18.225Z,107.47
2023-05-10T13:06:45.419Z,106.20
2023-05-10T13:09:12.405Z,90.60
2023-05-10T13:11:39.423Z,118.03
2023-05-10T13:14:06.396Z,98.65
2023-05-10T13:16:33.480Z,100.88
2023-05-10T13:19:00.541Z,105.40
2023-05-10T13:21:27.709Z,80.07
2023-05-10T13:23:54.715Z,105.32
2023-05-10T13:26:22.282Z,97.00
2023-05-10T13:28:49.960Z,119.40
2023-05-10T13:31:17.094Z,90.20
2023-05-10T13:33:44.130Z,109.38
2023-05-10T13:36:11.118Z,135.43
2023-05-10T13:38:38.606Z,102.15
2023-05-10T13:41:05.722Z,117.68
2023-05-10T13:43:32.707Z,87.55
2023-05-10T13:46:00.046Z,87.70
2023-05-10T13:48:27.816Z,97.78
2023-05-10T13:50:54.751Z,83.93
2023-05-10T13:53:22.178Z,82.50
2023-05-10T13:55:50.399Z,92.47
2023-05-10T13:58:17.533Z,97.65
2023-05-10T14:00:44.805Z,95.13
2023-05-10T14:03:12.403Z,95.28
2023-05-10T14:05:39.804Z,79.78
2023-05-10T14:08:07.002Z,78.22
2023-05-10T14:10:34.227Z,67.03
2023-05-10T14:13:01.290Z,75.32
2023-05-10T14:15:28.477Z,95.30
2023-05-10T14:17:55.604Z,93.07
2023-05-10T14:20:22.612Z,84.15
2023-05-10T14:22:49.568Z,95.28
2023-05-10T14:25:17.066Z,92.32
2023-05-10T14:27:44.344Z,81.70
2023-05-10T14:30:11.911Z,119.03
2023-05-10T14:32:39.009Z,105.22
2023-05-10T14:35:07.232Z,97.72
2023-05-10T14:37:34.494Z,100.55
2023-05-10T14:40:01.480Z,104.78
2023-05-10T14:42:29.484Z,95.45
2023-05-10T14:44:56.455Z,96.45
2023-05-10T14:47:23.603Z,98.20
2023-05-10T14:49:50.659Z,106.70
2023-05-10T14:52:17.711Z,104.22
2023-05-10T14:54:44.904Z,111.97
2023-05-10T14:57:12.333Z,102.50
2023-05-10T14:59:39.448Z,92.35
2023-05-10T15:02:09.431Z,92.80
2023-05-10T15:04:37.427Z,85.60
2023-05-10T15:07:05.328Z,74.63
2023-05-10T15:09:32.545Z,88.97
2023-05-10T15:11:59.520Z,92.45
2023-05-10T15:14:26.510Z,92.38
2023-05-10T15:16:53.523Z,93.30
2023-05-10T15:19:21.418Z,96.18
2023-05-10T15:21:48.417Z,89.78
2023-05-10T15:24:15.589Z,82.10
2023-05-10T15:26:42.620Z,81.40
2023-05-10T15:29:09.635Z,87.43
2023-05-10T15:31:36.965Z,88.72
2023-05-10T15:34:04.112Z,81.22
2023-05-10T15:36:32.808Z,83.28
2023-05-10T15:38:59.734Z,32.97
2023-05-10T15:41:26.680Z,29.90
2023-05-10T15:43:54.707Z,19.20
2023-05-10T15:46:21.805Z,19.90
2023-05-10T15:48:48.767Z,16.23
2023-05-10T15:51:15.952Z,20.13
2023-05-10T15:53:56.608Z,19.63
2023-05-10T15:56:30.132Z,20.40
2023-05-10T15:58:57.174Z,19.30
2023-05-10T16:01:24.243Z,64.80
2023-05-10T16:03:51.326Z,92.70
2023-05-10T16:06:18.393Z,58.17
2023-05-10T16:08:45.359Z,83.25
2023-05-10T16:11:12.294Z,69.07
2023-05-10T16:13:39.281Z,81.35
2023-05-10T16:16:08.869Z,73.78
2023-05-10T16:18:36.160Z,44.30
2023-05-10T16:21:03.366Z,51.85
2023-05-10T16:23:30.645Z,57.63
2023-05-10T16:25:57.680Z,59.67
2023-05-10T16:28:24.649Z,58.65
2023-05-10T16:30:51.948Z,76.10
2023-05-10T16:33:18.917Z,60.03
2023-05-10T16:35:46.316Z,71.82
2023-05-10T16:38:13.359Z,69.57
2023-05-10T16:40:40.366Z,72.30
2023-05-10T16:43:07.801Z,214.25
2023-05-10T16:45:34.875Z,81.22
2023-05-10T16:48:01.979Z,71.15
2023-05-10T16:50:28.926Z,68.15
2023-05-10T16:52:56.377Z,74.70
2023-05-10T16:55:26.219Z,47.88
2023-05-10T16:57:59.579Z,18.42
2023-05-10T17:00:27.490Z,21.52
2023-05-10T17:02:54.932Z,22.88
2023-05-10T17:05:22.907Z,24.77
2023-05-10T17:07:50.547Z,27.38
2023-05-10T17:10:17.668Z,17.15
2023-05-10T17:12:45.695Z,24.35
2023-05-10T17:15:12.981Z,18.90
2023-05-10T17:17:40.006Z,20.10
2023-05-10T17:20:08.447Z,22.42
2023-05-10T17:22:35.457Z,23.88
2023-05-10T17:25:02.416Z,18.70
2023-05-10T17:27:30.204Z,23.23
2023-05-10T17:29:57.883Z,25.65
2023-05-10T17:32:25.718Z,27.65
2023-05-10T17:34:52.757Z,24.60
2023-05-10T17:37:19.678Z,32.28
2023-05-10T17:39:46.597Z,21.17
2023-05-10T17:42:14.838Z,18.98
2023-05-10T17:44:42.047Z,44.05
2023-05-10T17:47:09.033Z,37.10
2023-05-10T17:49:36.052Z,26.75
2023-05-10T17:52:03.457Z,103.53
2023-05-10T17:54:30.541Z,91.75
2023-05-10T17:56:58.182Z,103.63
2023-05-10T17:59:25.163Z,117.05
2023-05-10T18:01:52.111Z,104.22
2023-05-10T18:04:19.060Z,121.65
2023-05-10T18:06:46.020Z,108.35
2023-05-10T18:09:13.130Z,106.85
2023-05-10T18:11:40.350Z,112.85
2023-05-10T18:14:07.592Z,108.60
2023-05-10T18:16:34.653Z,100.30
2023-05-10T18:19:01.645Z,126.30
2023-05-10T18:21:28.964Z,104.20
2023-05-10T18:23:56.020Z,88.05
2023-05-10T18:26:22.901Z,90.78
2023-05-10T18:28:49.939Z,83.15
2023-05-10T18:31:16.985Z,88.55
2023-05-10T18:33:45.031Z,86.82
2023-05-10T18:36:12.215Z,91.18
2023-05-10T18:38:40.113Z,97.65
2023-05-10T18:41:07.650Z,86.00
2023-05-10T18:43:34.617Z,87.28
2023-05-10T18:46:01.711Z,83.20
2023-05-10T18:48:29.052Z,84.32
2023-05-10T18:50:56.118Z,90.68
2023-05-10T18:53:23.289Z,77.30
2023-05-10T18:55:58.560Z,94.05
2023-05-10T18:58:28.535Z,76.95
2023-05-10T19:00:55.960Z,76.57
2023-05-10T19:03:22.942Z,83.90
2023-05-10T19:05:49.940Z,88.25
2023-05-10T19:08:17.309Z,73.85
2023-05-10T19:10:44.452Z,80.70
2023-05-10T19:13:11.608Z,102.95
2023-05-10T19:15:38.919Z,103.30
2023-05-10T19:18:06.514Z,97.85
2023-05-10T19:20:33.682Z,99.72
2023-05-10T19:23:09.747Z,104.72
2023-05-10T19:25:37.336Z,100.40
2023-05-10T19:28:04.304Z,102.18
2023-05-10T19:30:31.992Z,112.88
2023-05-10T19:32:59.096Z,107.85
2023-05-10T19:35:26.112Z,112.78
2023-05-10T19:37:53.677Z,114.20
2023-05-10T19:40:20.738Z,108.78
2023-05-10T19:42:48.063Z,125.00
2023-05-10T19:45:15.769Z,108.07
2023-05-10T19:47:43.598Z,123.45
2023-05-10T19:50:12.315Z,115.28
2023-05-10T19:52:39.509Z,123.50
2023-05-10T19:55:07.907Z,120.97
2023-05-10T19:57:34.897Z,132.68
2023-05-10T20:00:02.095Z,126.28
2023-05-10T20:02:38.175Z,215.05
2023-05-10T20:05:05.806Z,118.93
2023-05-10T20:07:32.792Z,118.00
2023-05-10T20:09:59.854Z,125.07
2023-05-10T20:12:27.299Z,119.47
2023-05-10T20:14:54.353Z,121.05
2023-05-10T20:17:21.248Z,120.68
2023-05-10T20:19:48.278Z,114.60
2023-05-10T20:22:15.243Z,119.05
2023-05-10T20:24:42.310Z,174.75
2023-05-10T20:27:09.322Z,180.73
2023-05-10T20:29:36.605Z,184.18
2023-05-10T20:32:03.755Z,160.85
2023-05-10T20:34:31.108Z,156.57
2023-05-10T20:36:58.154Z,139.80
2023-05-10T20:39:25.117Z,141.25
2023-05-10T20:41:54.601Z,135.82
2023-05-10T20:44:21.550Z,133.85
2023-05-10T20:46:48.583Z,135.35
2023-05-10T20:49:15.530Z,133.73
2023-05-10T20:51:42.439Z,147.43
2023-05-10T20:54:09.430Z,166.65
2023-05-10T20:56:36.376Z,136.93
2023-05-10T20:59:03.413Z,113.50
2023-05-10T21:01:31.739Z,127.30
2023-05-10T21:03:58.803Z,105.65
2023-05-10T21:06:25.782Z,110.95
2023-05-10T21:08:52.782Z,101.90
2023-05-10T21:11:19.714Z,95.32
2023-05-10T21:13:46.683Z,134.35
2023-05-10T21:16:13.775Z,101.88
2023-05-10T21:18:40.735Z,95.90
2023-05-10T21:21:07.736Z,97.40
2023-05-10T21:23:34.790Z,98.55
2023-05-10T21:26:04.167Z,112.72
2023-05-10T21:28:31.170Z,109.85
2023-05-10T21:30:58.142Z,94.57
2023-05-10T21:33:25.180Z,105.20
2023-05-10T21:35:52.924Z,111.75
2023-05-10T21:38:19.921Z,99.82
2023-05-10T21:40:46.867Z,116.60
2023-05-10T21:43:13.927Z,90.55
2023-05-10T21:45:41.109Z,96.85
2023-05-10T21:48:08.185Z,66.97
2023-05-10T21:50:35.167Z,105.15
2023-05-10T21:53:02.328Z,109.72
2023-05-10T21:55:29.282Z,122.85
2023-05-10T21:57:57.582Z,119.30
2023-05-10T22:00:24.552Z,110.10
2023-05-10T22:02:51.603Z,129.60
2023-05-10T22:05:18.791Z,129.93
2023-05-10T22:07:45.847Z,133.45
2023-05-10T22:10:12.740Z,140.30
2023-05-10T22:12:39.706Z,135.40
2023-05-10T22:15:10.340Z,135.50
2023-05-10T22:17:40.044Z,126.05
2023-05-10T22:20:08.794Z,131.77
2023-05-10T22:22:36.651Z,124.20
2023-05-10T22:25:05.900Z,129.77
2023-05-10T22:27:32.754Z,129.02
2023-05-10T22:29:59.700Z,127.45
2023-05-10T22:32:26.714Z,133.05
2023-05-10T22:34:53.764Z,132.07
2023-05-10T22:37:20.864Z,133.18
2023-05-10T22:39:48.659Z,134.38
2023-05-10T22:42:16.313Z,130.68
2023-05-10T22:44:44.298Z,124.95
2023-05-10T22:47:11.300Z,118.82
2023-05-10T22:49:38.324Z,113.60
2023-05-10T22:52:05.247Z,120.35
2023-05-10T22:54:33.786Z,119.15
2023-05-10T22:57:02.764Z,120.38
2023-05-10T22:59:29.753Z,109.97
2023-05-10T23:01:56.868Z,119.30
2023-05-10T23:04:24.007Z,117.45
2023-05-10T23:06:51.028Z,118.20
2023-05-10T23:09:18.273Z,113.57
2023-05-10T23:11:45.264Z,130.90
2023-05-10T23:14:12.227Z,111.93
2023-05-10T23:16:39.172Z,116.78
2023-05-10T23:19:07.252Z,113.70
2023-05-10T23:21:34.489Z,115.57
2023-05-10T23:24:01.472Z,116.47
2023-05-10T23:26:28.537Z,150.88
2023-05-10T23:28:55.522Z,134.63
2023-05-10T23:31:22.443Z,138.02
2023-05-10T23:33:49.433Z,135.77
2023-05-10T23:36:16.388Z,135.43
2023-05-10T23:38:43.397Z,134.63
2023-05-10T23:41:10.348Z,137.23
2023-05-10T23:43:37.380Z,119.90
2023-05-10T23:46:06.459Z,116.05
2023-05-10T23:48:33.508Z,119.63
2023-05-10T23:51:00.566Z,116.88
2023-05-10T23:53:28.317Z,126.00
2023-05-10T23:55:55.224Z,130.18
2023-05-10T23:58:22.190Z,122.20
